Time;durP1;ratioP1;P1;durP2;ratioP2;P2;SDS_P1;SDS_P2;PMS_P1;PMS_P2;Temp;Humidity;BMP_temperature;BMP_pressure;BME280_temperature;BME280_humidity;BME280_pressure;Samples;Min_cycle;Max_cycle;Signal;HPM_P1;HPM_P2
2023/05/24 00:01:47;;;;;;;13.23;3.70;;;5.80;99.90;;;;;;5073127;28;20474;-67
2023/05/24 00:04:13;;;;;;;17.85;4.15;;;5.80;99.90;;;;;;5071534;28;20027;-67
2023/05/24 00:06:40;;;;;;;12.02;3.78;;;5.80;99.90;;;;;;5072653;28;20039;-67
2023/05/24 00:09:06;;;;;;;15.38;3.90;;;5.80;99.90;;;;;;5072699;28;20029;-67
2023/05/24 00:11:32;;;;;;;12.88;3.90;;;5.70;99.90;;;;;;5072659;28;20025;-67
2023/05/24 00:13:57;;;;;;;14.13;4.30;;;5.70;99.90;;;;;;5072873;28;20043;-67
2023/05/24 00:16:23;;;;;;;10.63;4.15;;;5.70;99.90;;;;;;5072833;28;20055;-67
2023/05/24 00:18:49;;;;;;;18.55;4.35;;;5.70;99.90;;;;;;5072198;28;20055;-67
2023/05/24 00:21:14;;;;;;;14.65;4.25;;;5.60;99.90;;;;;;5072556;28;20104;-67
2023/05/24 00:23:41;;;;;;;14.30;3.97;;;5.60;99.90;;;;;;5072550;28;20031;-67
2023/05/24 00:26:07;;;;;;;34.30;5.63;;;5.60;99.90;;;;;;5072860;28;20029;-67
2023/05/24 00:28:33;;;;;;;12.18;4.18;;;5.60;99.90;;;;;;5076148;28;20029;-67
2023/05/24 00:30:59;;;;;;;13.07;4.43;;;5.60;99.90;;;;;;5076106;28;20064;-67
2023/05/24 00:33:25;;;;;;;14.85;4.25;;;5.50;99.90;;;;;;5076091;28;20489;-67
2023/05/24 00:35:55;;;;;;;17.00;4.90;;;5.40;99.90;;;;;;5076243;28;20035;-67
2023/05/24 00:38:21;;;;;;;15.25;4.25;;;5.40;99.90;;;;;;5076293;28;20474;-67
2023/05/24 00:40:47;;;;;;;17.48;4.65;;;5.40;99.90;;;;;;5075905;28;20021;-67
2023/05/24 00:43:13;;;;;;;12.90;4.28;;;5.40;99.90;;;;;;5075829;28;20097;-67
2023/05/24 00:45:39;;;;;;;15.52;4.57;;;5.40;99.90;;;;;;5075822;28;20474;-67
2023/05/24 00:48:04;;;;;;;21.65;4.93;;;5.30;99.90;;;;;;5076037;28;20074;-67
2023/05/24 00:50:30;;;;;;;22.70;5.93;;;5.30;99.90;;;;;;5076052;28;20020;-67
2023/05/24 00:52:59;;;;;;;17.30;5.30;;;5.40;99.90;;;;;;5075853;28;20063;-67
2023/05/24 00:55:25;;;;;;;13.30;4.78;;;5.30;99.90;;;;;;5075636;28;20023;-67
2023/05/24 00:57:51;;;;;;;18.52;5.18;;;5.30;99.90;;;;;;5075777;28;20028;-67
2023/05/24 01:00:17;;;;;;;17.60;5.18;;;5.30;99.90;;;;;;5075625;28;20179;-67
2023/05/24 01:02:43;;;;;;;14.63;4.70;;;5.20;99.90;;;;;;5075679;28;20126;-67
2023/05/24 01:05:12;;;;;;;18.35;5.00;;;5.20;99.90;;;;;;5075680;28;20111;-67
2023/05/24 01:08:17;;;;;;;16.63;4.88;;;5.20;99.90;;;;;;5075601;28;20073;-67
2023/05/24 01:10:55;;;;;;;14.52;5.28;;;5.20;99.90;;;;;;5075513;28;20039;-67
2023/05/24 01:13:28;;;;;;;15.13;5.35;;;5.20;99.90;;;;;;5075646;28;20024;-67
2023/05/24 01:16:06;;;;;;;17.42;5.40;;;5.20;99.90;;;;;;5075357;28;20397;-67
2023/05/24 01:18:35;;;;;;;15.65;5.15;;;5.10;99.90;;;;;;5075027;28;20040;-67
2023/05/24 01:21:47;;;;;;;13.18;5.70;;;5.10;99.90;;;;;;5075210;28;20021;-67
2023/05/24 01:24:36;;;;;;;13.93;5.03;;;5.10;99.90;;;;;;5075048;28;20108;-67
2023/05/24 01:27:06;;;;;;;15.85;5.68;;;5.00;99.90;;;;;;5075269;28;20024;-67
2023/05/24 01:29:33;;;;;;;20.95;6.32;;;5.00;99.90;;;;;;5075023;28;20029;-67
2023/05/24 01:32:00;;;;;;;14.38;5.93;;;5.00;99.90;;;;;;5075067;28;20108;-67
2023/05/24 01:34:25;;;;;;;23.42;6.88;;;5.00;99.90;;;;;;5074985;28;20571;-67
2023/05/24 01:36:51;;;;;;;14.98;6.05;;;5.00;99.90;;;;;;5074980;28;20029;-67
2023/05/24 01:39:17;;;;;;;16.65;5.97;;;4.90;99.90;;;;;;5074740;28;20024;-67
2023/05/24 01:41:58;;;;;;;19.98;6.57;;;4.90;99.90;;;;;;5074735;28;20505;-67
2023/05/24 01:44:35;;;;;;;27.67;8.05;;;4.90;99.90;;;;;;5074941;28;20085;-67
2023/05/24 01:47:10;;;;;;;20.23;6.93;;;4.90;99.90;;;;;;5074863;28;20017;-67
2023/05/24 01:49:41;;;;;;;20.35;7.55;;;4.80;99.90;;;;;;5074606;28;20389;-67
2023/05/24 01:52:12;;;;;;;24.55;7.82;;;4.80;99.90;;;;;;5074505;28;20024;-67
2023/05/24 01:54:43;;;;;;;17.25;6.95;;;4.80;99.90;;;;;;5074671;28;20021;-67
2023/05/24 01:57:10;;;;;;;15.40;6.60;;;4.80;99.90;;;;;;5074433;28;20392;-67
2023/05/24 01:59:39;;;;;;;17.70;6.82;;;4.80;99.90;;;;;;5074331;28;20078;-67
2023/05/24 02:02:04;;;;;;;19.92;7.00;;;4.80;99.90;;;;;;5073412;28;20132;-67
2023/05/24 02:04:30;;;;;;;15.82;6.50;;;4.70;99.90;;;;;;5074324;28;20100;-67
2023/05/24 02:06:56;;;;;;;15.30;5.85;;;4.70;99.90;;;;;;5074453;28;20094;-67
2023/05/24 02:09:21;;;;;;;12.55;5.75;;;4.70;99.90;;;;;;5074261;28;20432;-67
2023/05/24 02:11:47;;;;;;;21.08;6.00;;;4.70;99.90;;;;;;5074433;28;20082;-67
2023/05/24 02:14:12;;;;;;;17.20;6.82;;;4.70;99.90;;;;;;5074071;28;20486;-67
2023/05/24 02:16:41;;;;;;;18.23;5.90;;;4.70;99.90;;;;;;5074119;28;20033;-67
2023/05/24 02:19:08;;;;;;;19.60;5.78;;;4.70;99.90;;;;;;5073803;28;20051;-67
2023/05/24 02:21:34;;;;;;;21.13;6.53;;;4.70;99.90;;;;;;5073973;28;20086;-67
2023/05/24 02:23:59;;;;;;;19.20;6.38;;;4.80;99.90;;;;;;5073969;28;20497;-67
2023/05/24 02:26:25;;;;;;;22.20;6.50;;;4.80;99.90;;;;;;5073789;28;20054;-68
2023/05/24 02:28:50;;;;;;;13.45;5.38;;;4.70;99.90;;;;;;5073941;28;20056;-67
2023/05/24 02:31:16;;;;;;;18.13;5.72;;;4.70;99.90;;;;;;5072884;28;20070;-67
2023/05/24 02:33:42;;;;;;;18.42;6.20;;;4.70;99.90;;;;;;5073774;28;20441;-67
2023/05/24 02:36:07;;;;;;;21.33;6.55;;;4.70;99.90;;;;;;5073606;28;20440;-67
2023/05/24 02:38:33;;;;;;;18.05;6.63;;;4.70;99.90;;;;;;5072457;28;20104;-67
2023/05/24 02:40:59;;;;;;;26.42;8.23;;;4.70;99.90;;;;;;5073842;28;20017;-67
2023/05/24 02:43:24;;;;;;;28.08;8.35;;;4.80;99.90;;;;;;5073694;28;20025;-67
2023/05/24 02:45:50;;;;;;;21.83;7.75;;;4.90;99.90;;;;;;5073721;28;20089;-67
2023/05/24 02:48:15;;;;;;;22.67;6.90;;;5.00;99.90;;;;;;5073178;28;20043;-67
2023/05/24 02:50:41;;;;;;;18.20;6.90;;;5.00;99.90;;;;;;5073425;28;20070;-67
2023/05/24 02:53:07;;;;;;;27.17;8.18;;;5.00;99.90;;;;;;5073598;28;20086;-67
2023/05/24 02:55:33;;;;;;;16.95;7.05;;;5.00;99.90;;;;;;5073425;28;20425;-67
2023/05/24 02:57:58;;;;;;;20.25;6.97;;;4.90;99.90;;;;;;5073367;28;20029;-67
2023/05/24 03:00:24;;;;;;;21.23;6.63;;;4.80;99.90;;;;;;5073457;28;20028;-67
2023/05/24 03:02:51;;;;;;;14.98;6.22;;;4.80;99.90;;;;;;5073396;28;20028;-67
2023/05/24 03:05:17;;;;;;;18.60;7.22;;;4.70;99.90;;;;;;5073286;28;20074;-67
2023/05/24 03:07:42;;;;;;;22.40;6.60;;;4.70;99.90;;;;;;5073244;28;20032;-68
2023/05/24 03:10:08;;;;;;;19.98;7.50;;;4.60;99.90;;;;;;5073314;28;20036;-67
2023/05/24 03:12:34;;;;;;;17.48;6.68;;;4.60;99.90;;;;;;5073240;28;20028;-67
2023/05/24 03:14:59;;;;;;;20.42;7.32;;;4.60;99.90;;;;;;5073223;28;20103;-68
2023/05/24 03:17:25;;;;;;;22.08;7.10;;;4.60;99.90;;;;;;5073289;28;20458;-67
2023/05/24 03:19:51;;;;;;;21.63;6.88;;;4.60;99.90;;;;;;5072986;28;20045;-68
2023/05/24 03:22:17;;;;;;;17.70;6.88;;;4.50;99.90;;;;;;5073149;28;20021;-68
2023/05/24 03:24:45;;;;;;;16.77;6.85;;;4.50;99.90;;;;;;5073136;28;20055;-68
2023/05/24 03:27:10;;;;;;;18.20;8.63;;;4.50;99.90;;;;;;5073140;28;20059;-68
2023/05/24 03:29:36;;;;;;;26.10;8.07;;;4.50;99.90;;;;;;5073314;28;20028;-68
2023/05/24 03:32:01;;;;;;;16.70;8.32;;;4.50;99.90;;;;;;5073131;28;20472;-68
2023/05/24 03:34:27;;;;;;;24.98;9.02;;;4.50;99.90;;;;;;5073207;28;20137;-67
2023/05/24 03:36:52;;;;;;;20.73;8.25;;;4.50;99.90;;;;;;5073369;28;20036;-68
2023/05/24 03:39:18;;;;;;;26.60;10.18;;;4.50;99.90;;;;;;5072932;28;20115;-68
2023/05/24 03:41:43;;;;;;;26.20;9.82;;;4.50;99.90;;;;;;5072940;28;20467;-68
2023/05/24 03:44:09;;;;;;;20.55;9.60;;;4.60;99.90;;;;;;5073144;28;20028;-67
2023/05/24 03:46:35;;;;;;;34.67;11.63;;;4.60;99.90;;;;;;5072944;28;20025;-67
2023/05/24 03:49:00;;;;;;;29.20;10.80;;;4.60;99.90;;;;;;5073123;28;20508;-68
2023/05/24 03:51:28;;;;;;;24.98;12.02;;;4.60;99.90;;;;;;5073104;28;20135;-67
2023/05/24 03:53:56;;;;;;;27.83;11.75;;;4.60;99.90;;;;;;5072847;28;20033;-67
2023/05/24 03:56:22;;;;;;;23.65;11.40;;;4.60;99.90;;;;;;5072991;28;20043;-68
2023/05/24 03:58:47;;;;;;;22.15;10.40;;;4.60;99.90;;;;;;5072902;28;20025;-68
2023/05/24 04:01:13;;;;;;;23.00;9.95;;;4.70;99.90;;;;;;5074128;28;20031;-68
2023/05/24 04:03:39;;;;;;;16.77;8.95;;;4.70;99.90;;;;;;5076603;28;20028;-68
2023/05/24 04:06:05;;;;;;;19.60;9.95;;;4.80;99.90;;;;;;5076595;28;20040;-68
2023/05/24 04:08:30;;;;;;;29.55;12.38;;;4.80;99.90;;;;;;5076542;28;20060;-68
2023/05/24 04:10:56;;;;;;;28.95;12.38;;;4.90;99.90;;;;;;5076487;28;20075;-68
2023/05/24 04:13:21;;;;;;;27.63;11.20;;;4.90;99.90;;;;;;5076536;28;20024;-67
2023/05/24 04:15:47;;;;;;;28.02;11.35;;;4.90;99.90;;;;;;5076337;28;20032;-68
2023/05/24 04:18:13;;;;;;;22.55;11.02;;;4.90;99.90;;;;;;5076266;28;20113;-67
2023/05/24 04:20:38;;;;;;;28.02;10.77;;;4.90;99.90;;;;;;5076046;28;20028;-67
2023/05/24 04:23:04;;;;;;;23.63;10.73;;;5.00;99.90;;;;;;5076232;28;20029;-68
2023/05/24 04:25:29;;;;;;;20.58;10.20;;;5.00;99.90;;;;;;5076293;28;20474;-67
2023/05/24 04:27:55;;;;;;;19.42;9.50;;;5.00;99.90;;;;;;5076265;28;20021;-68
2023/05/24 04:30:21;;;;;;;25.13;11.55;;;5.10;99.90;;;;;;5076266;28;20032;-67
2023/05/24 04:32:47;;;;;;;19.17;10.45;;;5.20;99.90;;;;;;5076080;28;20028;-68
2023/05/24 04:35:14;;;;;;;25.60;11.27;;;5.30;99.90;;;;;;5076030;28;20063;-68
2023/05/24 04:37:39;;;;;;;26.80;11.13;;;5.40;99.90;;;;;;5076042;28;20428;-68
2023/05/24 04:40:06;;;;;;;25.00;11.15;;;5.60;99.90;;;;;;5075840;28;20028;-68
2023/05/24 04:42:33;;;;;;;26.98;10.07;;;6.20;99.90;;;;;;5075918;28;20056;-68
2023/05/24 04:44:59;;;;;;;21.65;9.00;;;7.10;99.90;;;;;;5075885;28;20017;-67
2023/05/24 04:47:24;;;;;;;26.85;9.05;;;7.10;99.90;;;;;;5075935;28;20371;-68
2023/05/24 04:49:50;;;;;;;21.02;7.70;;;7.00;99.90;;;;;;5075874;28;20029;-68
2023/05/24 04:52:17;;;;;;;22.73;7.40;;;7.20;99.90;;;;;;5075740;28;20393;-68
2023/05/24 04:54:42;;;;;;;25.50;6.43;;;7.50;99.90;;;;;;5075691;28;20518;-68
2023/05/24 04:57:08;;;;;;;19.63;5.90;;;7.60;99.90;;;;;;5075669;28;20051;-68
2023/05/24 04:59:33;;;;;;;21.55;6.53;;;7.60;99.90;;;;;;5075463;28;20071;-68
2023/05/24 05:01:59;;;;;;;20.15;6.05;;;7.30;99.90;;;;;;5075617;28;20474;-68
2023/05/24 05:04:24;;;;;;;23.85;7.25;;;7.30;99.90;;;;;;5075684;28;20032;-68
2023/05/24 05:06:51;;;;;;;29.67;8.07;;;7.10;99.90;;;;;;5075715;28;20027;-68
2023/05/24 05:09:17;;;;;;;28.90;7.18;;;7.10;99.90;;;;;;5075679;28;20016;-67
2023/05/24 05:11:44;;;;;;;27.08;8.25;;;7.00;99.90;;;;;;5074993;28;20056;-68
2023/05/24 05:14:10;;;;;;;27.55;8.30;;;7.10;99.90;;;;;;5075545;28;20039;-67
2023/05/24 05:16:36;;;;;;;28.65;7.97;;;7.20;99.90;;;;;;5075289;28;20024;-68
2023/05/24 05:19:03;;;;;;;23.98;7.97;;;7.30;99.90;;;;;;5075102;28;20515;-67
2023/05/24 05:21:31;;;;;;;32.88;9.27;;;7.30;99.90;;;;;;5075102;28;20103;-68
2023/05/24 05:23:58;;;;;;;33.03;8.55;;;7.50;99.90;;;;;;5075216;28;20024;-68
2023/05/24 05:26:23;;;;;;;28.17;8.85;;;7.70;99.90;;;;;;5075242;28;20501;-67
2023/05/24 05:28:49;;;;;;;31.65;9.38;;;7.80;99.90;;;;;;5075000;28;20062;-68
2023/05/24 05:31:14;;;;;;;32.25;9.07;;;7.80;99.90;;;;;;5074952;28;20496;-67
2023/05/24 05:33:40;;;;;;;31.58;8.57;;;7.90;99.90;;;;;;5074974;28;20097;-68
2023/05/24 05:36:06;;;;;;;26.45;8.80;;;7.90;99.90;;;;;;5074893;28;20024;-68
2023/05/24 05:38:31;;;;;;;26.95;9.35;;;8.00;99.90;;;;;;5074830;28;20036;-68
2023/05/24 05:40:57;;;;;;;24.10;8.70;;;8.10;99.90;;;;;;5074844;28;20114;-68
2023/05/24 05:43:23;;;;;;;28.20;7.97;;;8.10;99.90;;;;;;5074988;28;20115;-67
2023/05/24 05:45:49;;;;;;;28.30;9.25;;;8.20;99.90;;;;;;5074626;28;20100;-68
2023/05/24 05:48:15;;;;;;;30.38;8.73;;;8.40;99.90;;;;;;5074515;28;20048;-68
2023/05/24 05:50:40;;;;;;;25.45;8.65;;;8.50;99.90;;;;;;5074561;28;20028;-68
2023/05/24 05:53:06;;;;;;;31.25;8.73;;;8.50;99.90;;;;;;5074537;28;20103;-68
2023/05/24 05:55:31;;;;;;;19.05;8.20;;;8.60;99.90;;;;;;5074380;28;20028;-67
2023/05/24 05:57:57;;;;;;;29.58;8.75;;;9.00;99.90;;;;;;5074468;28;20020;-67
2023/05/24 06:00:22;;;;;;;27.85;8.10;;;9.00;99.90;;;;;;5074358;28;20028;-68
2023/05/24 06:02:48;;;;;;;32.90;8.07;;;9.10;99.90;;;;;;5074188;28;20021;-68
2023/05/24 06:05:13;;;;;;;22.75;7.50;;;9.80;91.80;;;;;;5074367;28;20028;-68
2023/05/24 06:07:39;;;;;;;25.70;7.32;;;10.30;55.20;;;;;;5074238;28;20032;-68
2023/05/24 06:10:05;;;;;;;21.70;7.38;;;10.70;37.00;;;;;;5073813;28;20060;-68
2023/05/24 06:12:31;;;;;;;26.55;7.72;;;10.90;1.00;;;;;;5074092;28;20111;-68
2023/05/24 06:14:58;;;;;;;28.52;8.23;;;11.10;15.40;;;;;;5074137;28;20154;-68
2023/05/24 06:17:24;;;;;;;15.85;6.80;;;10.60;18.70;;;;;;5074108;28;20413;-68
2023/05/24 06:19:52;;;;;;;25.92;7.53;;;10.80;42.10;;;;;;5073729;28;20045;-69
2023/05/24 06:22:18;;;;;;;29.92;7.57;;;10.60;38.90;;;;;;5074114;28;20497;-68
2023/05/24 06:24:44;;;;;;;28.08;8.13;;;10.40;51.60;;;;;;5073362;28;20024;-68
2023/05/24 06:27:10;;;;;;;25.52;8.10;;;10.70;64.50;;;;;;5073866;28;20032;-68
2023/05/24 06:29:35;;;;;;;33.58;8.20;;;10.80;54.00;;;;;;5073907;28;20029;-68
2023/05/24 06:32:01;;;;;;;25.95;7.40;;;10.70;48.80;;;;;;5073557;28;20162;-68
2023/05/24 06:34:28;;;;;;;34.63;8.65;;;10.80;46.00;;;;;;5073707;28;20500;-68
2023/05/24 06:36:54;;;;;;;31.60;8.10;;;10.90;38.80;;;;;;5073852;28;20111;-68
2023/05/24 06:39:19;;;;;;;31.50;8.27;;;11.00;41.20;;;;;;5073101;28;20158;-68
2023/05/24 06:41:45;;;;;;;30.65;7.85;;;11.00;49.80;;;;;;5073519;28;20024;-68
2023/05/24 06:44:11;;;;;;;21.42;7.43;;;11.20;25.30;;;;;;5072925;28;20016;-68
2023/05/24 06:46:37;;;;;;;25.13;7.18;;;11.50;23.20;;;;;;5072481;28;20036;-68
2023/05/24 06:49:03;;;;;;;26.48;7.13;;;11.80;1.90;;;;;;5073152;28;20094;-68
2023/05/24 06:51:29;;;;;;;26.35;7.18;;;11.80;1.00;;;;;;5073422;28;20060;-68
2023/05/24 06:53:55;;;;;;;27.23;7.32;;;12.10;1.00;;;;;;5073080;28;20035;-68
2023/05/24 06:56:22;;;;;;;29.88;6.43;;;12.20;1.00;;;;;;5073679;28;20394;-69
2023/05/24 06:58:47;;;;;;;28.20;7.78;;;12.30;1.00;;;;;;5073129;28;20035;-68
2023/05/24 07:01:13;;;;;;;20.42;7.10;;;12.30;1.00;;;;;;5073528;28;20025;-68
2023/05/24 07:03:38;;;;;;;35.33;8.27;;;12.60;1.00;;;;;;5073195;28;20039;-68
2023/05/24 07:06:04;;;;;;;35.70;7.20;;;12.30;1.00;;;;;;5073137;28;20035;-68
2023/05/24 07:08:30;;;;;;;28.40;7.35;;;12.10;1.00;;;;;;5073120;28;20024;-68
2023/05/24 07:10:55;;;;;;;38.03;7.88;;;11.80;1.00;;;;;;5061128;28;20036;-68
2023/05/24 07:13:21;;;;;;;33.92;7.85;;;11.70;1.00;;;;;;5073289;28;20032;-69
2023/05/24 07:15:48;;;;;;;31.58;7.65;;;11.70;1.00;;;;;;5067601;28;20028;-68
2023/05/24 07:18:13;;;;;;;29.25;7.20;;;11.90;1.00;;;;;;5051876;28;20482;-68
2023/05/24 07:20:39;;;;;;;27.20;7.68;;;11.90;1.00;;;;;;5053236;28;20037;-68
2023/05/24 07:23:05;;;;;;;33.38;8.13;;;11.90;1.00;;;;;;5061773;28;20047;-68
2023/05/24 07:25:32;;;;;;;23.67;7.78;;;11.90;1.00;;;;;;5072103;28;20112;-68
2023/05/24 07:27:58;;;;;;;32.75;8.35;;;12.20;1.00;;;;;;5061589;28;20491;-68
2023/05/24 07:30:24;;;;;;;27.58;8.27;;;12.50;1.00;;;;;;5052860;28;20029;-68
2023/05/24 07:32:50;;;;;;;31.45;7.57;;;12.50;1.00;;;;;;5052822;28;20482;-69
2023/05/24 07:35:16;;;;;;;26.25;7.32;;;12.60;1.00;;;;;;5054706;28;20037;-69
2023/05/24 07:37:41;;;;;;;28.00;7.80;;;12.90;1.00;;;;;;5061742;28;20024;-68
2023/05/24 07:40:10;;;;;;;36.67;10.82;;;12.90;1.00;;;;;;5076650;28;20497;-68
2023/05/24 07:42:37;;;;;;;38.10;14.65;;;12.90;1.00;;;;;;5076692;28;20021;-68
2023/05/24 07:45:04;;;;;;;22.90;6.82;;;13.30;1.00;;;;;;5076988;28;20046;-68
2023/05/24 07:47:29;;;;;;;25.50;7.18;;;13.50;1.00;;;;;;5058865;28;20029;-68
2023/05/24 07:49:55;;;;;;;22.90;6.90;;;13.70;1.00;;;;;;5063757;28;20102;-68
2023/05/24 07:52:22;;;;;;;24.63;6.82;;;13.30;1.00;;;;;;5076148;28;20024;-69
2023/05/24 07:54:47;;;;;;;32.85;6.95;;;13.40;1.00;;;;;;5076216;28;20470;-68
2023/05/24 07:57:13;;;;;;;22.45;7.00;;;12.80;1.00;;;;;;5076594;28;20032;-69
2023/05/24 07:59:39;;;;;;;29.70;8.32;;;12.70;1.00;;;;;;5076465;28;20044;-69
2023/05/24 08:02:05;;;;;;;25.38;7.90;;;12.90;1.00;;;;;;5076635;28;20035;-69
2023/05/24 08:04:32;;;;;;;23.83;7.07;;;13.40;1.00;;;;;;5076382;28;20375;-68
2023/05/24 08:07:00;;;;;;;25.55;6.60;;;13.50;99.90;;;;;;5075538;28;20025;-68
2023/05/24 08:09:26;;;;;;;28.63;8.10;;;13.40;1.00;;;;;;5074393;28;20036;-68
2023/05/24 08:11:52;;;;;;;33.05;7.07;;;12.80;1.00;;;;;;5068337;28;20037;-68
2023/05/24 08:14:17;;;;;;;24.02;6.93;;;12.70;1.00;;;;;;5056296;28;20078;-68
2023/05/24 08:16:43;;;;;;;28.52;8.15;;;12.60;1.00;;;;;;5056073;28;20079;-68
2023/05/24 08:19:08;;;;;;;24.98;7.57;;;12.40;1.00;;;;;;5055953;28;20053;-69
2023/05/24 08:21:34;;;;;;;27.65;7.07;;;12.20;1.00;;;;;;5056213;28;20368;-68
2023/05/24 08:23:59;;;;;;;35.33;8.55;;;12.20;1.00;;;;;;5055920;28;20048;-68
2023/05/24 08:26:25;;;;;;;30.88;8.63;;;12.40;1.00;;;;;;5057747;28;20029;-68
2023/05/24 08:28:51;;;;;;;20.30;6.78;;;12.60;1.00;;;;;;5057081;28;20021;-69
2023/05/24 08:31:17;;;;;;;27.27;7.47;;;12.80;1.00;;;;;;5075980;28;20069;-69
2023/05/24 08:33:43;;;;;;;22.65;7.30;;;13.40;1.00;;;;;;5075135;28;20089;-69
2023/05/24 08:36:08;;;;;;;23.17;7.35;;;14.00;99.90;;;;;;5073863;28;20036;-69
2023/05/24 08:38:34;;;;;;;29.13;8.55;;;14.20;99.90;;;;;;5075748;28;20029;-69
2023/05/24 08:41:04;;;;;;;20.75;6.43;;;14.00;99.90;;;;;;5075609;28;20027;-69
2023/05/24 08:43:29;;;;;;;22.83;6.68;;;13.90;99.90;;;;;;5075783;28;20020;-69
2023/05/24 08:45:57;;;;;;;31.02;6.57;;;14.30;99.90;;;;;;5074354;28;20039;-69
2023/05/24 08:48:24;;;;;;;22.13;5.82;;;14.20;73.00;;;;;;5074098;28;20429;-69
2023/05/24 08:50:50;;;;;;;27.30;7.22;;;14.50;95.20;;;;;;5074490;28;20381;-69
2023/05/24 08:53:17;;;;;;;29.08;6.80;;;14.40;99.90;;;;;;5056851;28;20033;-69
2023/05/24 08:55:43;;;;;;;21.30;6.05;;;14.10;99.90;;;;;;5072436;28;20394;-68
2023/05/24 08:58:10;;;;;;;25.60;6.47;;;13.90;99.90;;;;;;5074257;28;20028;-68
2023/05/24 09:00:35;;;;;;;23.90;5.95;;;13.80;99.90;;;;;;5075421;28;20120;-68
2023/05/24 09:03:03;;;;;;;22.27;5.80;;;14.10;99.90;;;;;;5065608;28;20061;-68
2023/05/24 09:05:29;;;;;;;21.55;5.47;;;14.10;1.00;;;;;;5064805;28;20028;-68
2023/05/24 09:07:58;;;;;;;26.65;5.35;;;14.10;99.90;;;;;;5075410;28;20035;-69
2023/05/24 09:10:25;;;;;;;17.38;5.47;;;14.50;99.90;;;;;;5074213;28;20429;-68
2023/05/24 09:12:56;;;;;;;22.92;5.75;;;14.40;99.90;;;;;;5074128;28;20104;-69
2023/05/24 09:15:22;;;;;;;22.80;5.82;;;14.40;12.10;;;;;;5075288;28;20119;-69
2023/05/24 09:17:47;;;;;;;22.00;5.65;;;14.70;1.00;;;;;;5075171;28;20599;-68
2023/05/24 09:20:13;;;;;;;21.40;5.43;;;14.80;99.90;;;;;;5075374;28;20063;-69
2023/05/24 09:22:41;;;;;;;24.45;6.18;;;14.60;99.90;;;;;;5075248;28;20032;-68
2023/05/24 09:25:08;;;;;;;22.80;5.63;;;14.50;99.90;;;;;;5075100;28;20031;-68
2023/05/24 09:27:34;;;;;;;21.10;5.50;;;14.20;99.90;;;;;;5073911;28;20031;-69
2023/05/24 09:30:04;;;;;;;20.65;6.38;;;14.20;99.90;;;;;;5073799;28;20170;-69
2023/05/24 09:32:30;;;;;;;20.45;6.40;;;14.00;29.80;;;;;;5074001;28;20029;-69
2023/05/24 09:34:57;;;;;;;22.30;6.18;;;13.80;99.90;;;;;;5074973;28;20054;-69
2023/05/24 09:37:27;;;;;;;28.20;6.28;;;13.80;93.10;;;;;;5074713;28;20119;-69
2023/05/24 09:39:53;;;;;;;20.55;5.80;;;13.70;23.90;;;;;;5074544;28;20032;-67
2023/05/24 09:42:23;;;;;;;26.95;6.47;;;13.70;99.90;;;;;;5070653;28;20087;-68
2023/05/24 09:45:08;;;;;;;22.70;5.75;;;13.60;99.90;;;;;;5055061;28;20033;-68
2023/05/24 09:47:34;;;;;;;23.45;5.82;;;13.60;99.90;;;;;;5054666;28;20375;-67
2023/05/24 09:50:02;;;;;;;19.98;6.38;;;13.40;99.90;;;;;;5064515;28;20048;-67
2023/05/24 09:52:28;;;;;;;22.02;6.45;;;13.60;99.90;;;;;;5074768;28;20058;-67
2023/05/24 09:54:54;;;;;;;23.27;5.57;;;13.50;99.90;;;;;;5074427;28;20037;-68
2023/05/24 09:57:21;;;;;;;26.65;6.05;;;13.70;99.90;;;;;;5068952;28;20107;-68
2023/05/24 09:59:48;;;;;;;17.52;6.05;;;14.10;99.90;;;;;;5051795;28;20033;-68
2023/05/24 10:02:17;;;;;;;21.95;5.82;;;14.40;99.90;;;;;;5054320;28;20407;-67
2023/05/24 10:04:42;;;;;;;22.63;6.22;;;14.80;99.90;;;;;;5073140;28;20020;-68
2023/05/24 10:07:09;;;;;;;22.90;5.82;;;15.10;1.00;;;;;;5074201;28;20033;-68
2023/05/24 10:09:35;;;;;;;20.20;5.63;;;15.00;99.90;;;;;;5073779;28;20032;-68
2023/05/24 10:12:03;;;;;;;22.77;5.93;;;15.30;1.00;;;;;;5074245;28;20111;-67
2023/05/24 10:14:35;;;;;;;17.75;5.22;;;15.30;99.90;;;;;;5074047;28;20085;-68
2023/05/24 10:17:05;;;;;;;23.63;6.05;;;15.20;99.90;;;;;;5067292;28;20032;-68
2023/05/24 10:19:32;;;;;;;15.93;5.65;;;14.60;99.90;;;;;;5053435;28;20037;-67
2023/05/24 10:22:00;;;;;;;19.48;5.55;;;14.70;1.00;;;;;;5053477;28;20033;-68
2023/05/24 10:24:32;;;;;;;19.75;6.25;;;14.30;99.90;;;;;;5056675;28;20107;-68
2023/05/24 10:26:59;;;;;;;17.27;5.85;;;13.90;1.00;;;;;;5053834;28;20087;-69
2023/05/24 10:30:03;;;;;;;20.40;5.30;;;13.90;99.90;;;;;;5054188;28;20043;-67
2023/05/24 10:32:31;;;;;;;29.65;5.93;;;13.80;1.00;;;;;;5061568;28;20025;-68
2023/05/24 10:34:58;;;;;;;17.83;5.63;;;13.50;1.00;;;;;;5073017;28;20615;-67
2023/05/24 10:37:25;;;;;;;26.75;6.47;;;13.60;99.90;;;;;;5073819;28;20028;-70
2023/05/24 10:39:51;;;;;;;18.67;5.40;;;13.50;1.00;;;;;;5073118;28;20078;-69
2023/05/24 10:42:17;;;;;;;19.25;5.25;;;13.70;99.90;;;;;;5073674;28;20024;-68
2023/05/24 10:44:43;;;;;;;19.10;5.03;;;13.90;99.90;;;;;;5073466;28;20108;-68
2023/05/24 10:47:11;;;;;;;24.38;5.50;;;14.40;99.90;;;;;;5073579;28;20150;-68
2023/05/24 10:49:46;;;;;;;26.95;5.47;;;14.60;1.00;;;;;;5072570;28;20036;-68
2023/05/24 10:52:12;;;;;;;22.55;5.78;;;14.10;1.00;;;;;;5073406;28;20024;-68
2023/05/24 10:54:38;;;;;;;19.52;5.85;;;14.10;99.90;;;;;;5072521;28;20035;-67
2023/05/24 10:57:05;;;;;;;22.05;6.18;;;14.20;1.00;;;;;;5072155;28;20501;-68
2023/05/24 10:59:36;;;;;;;23.23;6.03;;;14.40;87.20;;;;;;5073352;28;20020;-68
2023/05/24 11:02:04;;;;;;;20.75;5.88;;;14.60;99.90;;;;;;5072526;28;20081;-68
2023/05/24 11:04:32;;;;;;;22.25;5.85;;;15.00;99.90;;;;;;5073319;28;20470;-68
2023/05/24 11:07:04;;;;;;;20.63;5.55;;;15.20;99.90;;;;;;5071750;28;20534;-68
2023/05/24 11:09:30;;;;;;;15.63;5.32;;;15.60;99.90;;;;;;5072001;28;20071;-69
2023/05/24 11:12:07;;;;;;;22.08;5.72;;;15.50;99.90;;;;;;5073251;28;20113;-68
2023/05/24 11:14:36;;;;;;;23.05;5.90;;;15.10;17.90;;;;;;5071581;28;20032;-68
2023/05/24 11:17:02;;;;;;;18.90;5.40;;;14.90;99.90;;;;;;5068792;28;20040;-68
2023/05/24 11:19:44;;;;;;;23.00;6.50;;;14.70;99.90;;;;;;5072663;28;20444;-68
2023/05/24 11:22:13;;;;;;;20.17;6.28;;;14.60;99.90;;;;;;5072131;28;20081;-68
2023/05/24 11:24:40;;;;;;;28.67;6.07;;;14.40;99.90;;;;;;5073004;28;20067;-68
2023/05/24 11:27:06;;;;;;;22.08;5.75;;;14.30;99.90;;;;;;5071202;28;20021;-68
2023/05/24 11:29:38;;;;;;;23.75;5.57;;;14.10;99.90;;;;;;5072841;28;20043;-69
2023/05/24 11:32:04;;;;;;;20.60;5.78;;;13.90;1.00;;;;;;5071322;28;20029;-68
2023/05/24 11:34:31;;;;;;;24.38;6.05;;;13.70;99.90;;;;;;5071001;28;20646;-68
2023/05/24 11:37:01;;;;;;;23.25;5.68;;;13.70;1.00;;;;;;5072667;28;20512;-68
2023/05/24 11:39:36;;;;;;;21.23;6.20;;;13.60;99.90;;;;;;5071422;28;20028;-69
2023/05/24 11:42:05;;;;;;;21.23;6.85;;;13.60;99.90;;;;;;5071452;28;20025;-69
2023/05/24 11:44:32;;;;;;;21.50;6.15;;;13.50;1.00;;;;;;5071642;28;20030;-69
2023/05/24 11:46:59;;;;;;;19.90;6.35;;;13.40;99.90;;;;;;5062317;28;20033;-68
2023/05/24 11:49:25;;;;;;;21.08;5.90;;;13.40;99.90;;;;;;5053090;28;20032;-68
2023/05/24 11:51:53;;;;;;;19.52;6.15;;;13.40;99.90;;;;;;5053032;28;20112;-69
2023/05/24 11:54:20;;;;;;;22.67;6.07;;;13.40;1.00;;;;;;5052613;28;20124;-68
2023/05/24 11:56:46;;;;;;;20.73;5.40;;;13.30;1.00;;;;;;5052357;28;20037;-68
2023/05/24 11:59:15;;;;;;;23.13;6.65;;;13.50;74.10;;;;;;5052515;28;20025;-68
2023/05/24 12:01:41;;;;;;;23.48;6.97;;;13.60;99.90;;;;;;5064364;28;20553;-68
2023/05/24 12:04:08;;;;;;;28.15;6.63;;;13.70;82.20;;;;;;5072567;28;20020;-69
2023/05/24 12:06:39;;;;;;;23.48;7.03;;;13.80;99.90;;;;;;5072574;28;20035;-68
2023/05/24 12:09:13;;;;;;;29.33;6.80;;;14.10;1.00;;;;;;5071322;28;20021;-68
2023/05/24 12:11:40;;;;;;;23.42;6.45;;;14.20;1.00;;;;;;5072474;28;20033;-68
2023/05/24 12:14:11;;;;;;;22.58;6.82;;;14.10;91.40;;;;;;5070533;28;20032;-68
2023/05/24 12:16:36;;;;;;;21.00;6.75;;;14.10;1.00;;;;;;5072423;28;20505;-68
2023/05/24 12:19:02;;;;;;;22.50;6.47;;;14.20;99.90;;;;;;5071649;28;20157;-68
2023/05/24 12:21:30;;;;;;;20.08;6.55;;;14.30;99.90;;;;;;5072564;28;20516;-68
2023/05/24 12:23:56;;;;;;;26.50;7.13;;;14.40;38.50;;;;;;5075477;28;20025;-68
2023/05/24 12:26:22;;;;;;;19.60;5.93;;;14.70;1.00;;;;;;5075980;28;20032;-68
2023/05/24 12:28:53;;;;;;;21.80;6.97;;;14.60;1.00;;;;;;5075844;28;20024;-69
2023/05/24 12:31:20;;;;;;;25.30;6.40;;;14.40;99.90;;;;;;5075864;28;20081;-69
2023/05/24 12:33:46;;;;;;;17.73;6.13;;;14.40;99.90;;;;;;5075997;28;20036;-68
2023/05/24 12:36:12;;;;;;;23.83;6.57;;;14.40;99.90;;;;;;5071731;28;20025;-69
2023/05/24 12:38:38;;;;;;;21.05;6.90;;;14.10;99.90;;;;;;5055830;28;20029;-68
2023/05/24 12:41:04;;;;;;;21.15;6.45;;;14.10;99.90;;;;;;5072567;28;20035;-68
2023/05/24 12:43:30;;;;;;;21.40;6.30;;;14.20;99.90;;;;;;5076038;28;20035;-69